Time;durP1;ratioP1;P1;durP2;ratioP2;P2;SDS_P1;SDS_P2;PMS_P1;PMS_P2;Temp;Humidity;BMP_temperature;BMP_pressure;BME280_temperature;BME280_humidity;BME280_pressure;Samples;Min_cycle;Max_cycle;Signal;HPM_P1;HPM_P2
2022/11/14 00:00:20;;;;;;;8.13;4.43;;;;;;;17.32;57.58;96505.16;10432655;28;20045;-30
2022/11/14 00:05:41;;;;;;;8.50;4.80;;;;;;;17.31;57.64;96492.53;10436352;28;20124;-30
2022/11/14 00:11:00;;;;;;;8.55;5.18;;;;;;;17.25;58.43;96488.28;10434754;28;20044;-31
2022/11/14 00:16:20;;;;;;;8.77;4.70;;;;;;;17.26;58.86;96484.06;10431496;28;20581;-30
2022/11/14 00:21:38;;;;;;;9.77;5.18;;;;;;;17.20;59.01;96484.06;10434316;28;20036;-29
2022/11/14 00:26:58;;;;;;;7.82;4.38;;;;;;;17.16;59.33;96489.97;10436169;28;20491;-31
2022/11/14 00:32:17;;;;;;;7.93;4.15;;;;;;;17.13;59.22;96482.38;10432264;28;20475;-31
2022/11/14 00:37:36;;;;;;;6.30;3.80;;;;;;;17.20;58.73;96481.53;10437288;28;20040;-31
2022/11/14 00:42:55;;;;;;;6.40;3.85;;;;;;;17.14;58.99;96471.44;10431697;28;20044;-30
2022/11/14 00:48:14;;;;;;;6.40;3.90;;;;;;;17.15;58.58;96466.34;10431909;28;20049;-29
2022/11/14 00:53:33;;;;;;;7.20;3.70;;;;;;;17.11;59.16;96463.81;10435623;28;20120;-30
2022/11/14 00:58:52;;;;;;;6.93;4.35;;;;;;;17.11;58.97;96463.81;10432720;28;20050;-30
2022/11/14 01:04:11;;;;;;;5.22;3.42;;;;;;;17.16;58.33;96467.22;10438102;28;20033;-30
2022/11/14 01:09:30;;;;;;;5.78;3.10;;;;;;;17.20;57.98;96448.66;10429886;28;20045;-29
2022/11/14 01:14:49;;;;;;;7.40;3.28;;;;;;;17.31;57.62;96441.94;10436491;28;20045;-31
2022/11/14 01:20:08;;;;;;;8.20;3.45;;;;;;;17.35;57.42;96434.34;10434424;28;20049;-30
2022/11/14 01:25:27;;;;;;;5.93;3.42;;;;;;;17.25;58.41;96422.50;10444270;28;20471;-28
2022/11/14 01:30:46;;;;;;;4.43;2.88;;;;;;;17.19;58.78;96417.47;10436199;28;20068;-30
2022/11/14 01:36:06;;;;;;;5.53;2.88;;;;;;;17.15;58.99;96409.88;10436405;28;20080;-30
2022/11/14 01:41:25;;;;;;;6.60;3.40;;;;;;;17.14;58.99;96400.59;10442824;28;20044;-30
2022/11/14 01:46:50;;;;;;;5.45;3.17;;;;;;;17.17;59.03;96405.66;10437630;28;20073;-32
2022/11/14 01:52:19;;;;;;;5.38;2.70;;;;;;;17.08;59.08;96382.88;10440671;28;20036;-30
2022/11/14 01:57:43;;;;;;;5.32;2.95;;;;;;;17.11;59.17;96385.41;10441364;28;20499;-31
2022/11/14 02:03:03;;;;;;;3.67;2.55;;;;;;;17.12;58.87;96379.50;10434496;28;20427;-30
2022/11/14 02:08:23;;;;;;;4.88;2.65;;;;;;;17.12;58.87;96371.91;10441445;28;20510;-30
2022/11/14 02:13:42;;;;;;;4.70;2.67;;;;;;;17.10;59.03;96366.88;10441561;28;20037;-30
2022/11/14 02:19:01;;;;;;;4.28;2.50;;;;;;;17.10;59.06;96366.03;10439085;28;20049;-30
2022/11/14 02:24:20;;;;;;;4.47;2.78;;;;;;;17.12;58.11;96354.22;10434064;28;20033;-30
2022/11/14 02:29:39;;;;;;;4.22;1.98;;;;;;;17.28;57.68;96345.75;10440003;28;20032;-30
2022/11/14 02:34:58;;;;;;;3.97;2.10;;;;;;;17.31;57.70;96354.19;10435422;28;20037;-30
2022/11/14 02:40:17;;;;;;;4.30;2.50;;;;;;;17.24;58.38;96349.16;10438633;28;20104;-30
2022/11/14 02:45:36;;;;;;;5.38;2.55;;;;;;;17.22;58.14;96350.81;10436592;28;20041;-30
2022/11/14 02:50:55;;;;;;;4.30;2.10;;;;;;;17.08;58.98;96350.00;10437379;28;20530;-34
2022/11/14 02:56:14;;;;;;;3.67;2.40;;;;;;;17.12;58.38;96352.53;10436653;28;20045;-30
2022/11/14 03:01:32;;;;;;;4.00;2.20;;;;;;;17.10;58.85;96351.72;10440568;28;20132;-30
2022/11/14 03:06:51;;;;;;;3.97;2.42;;;;;;;17.09;59.22;96354.22;10435989;28;20037;-30
2022/11/14 03:12:10;;;;;;;4.03;1.92;;;;;;;17.11;59.10;96352.53;10442050;28;20049;-31
2022/11/14 03:17:32;;;;;;;2.35;1.73;;;;;;;17.10;59.00;96353.38;10436632;28;20068;-30
2022/11/14 03:22:51;;;;;;;4.55;1.90;;;;;;;17.15;58.41;96354.22;10433512;28;20041;-30
2022/11/14 03:28:10;;;;;;;2.88;1.90;;;;;;;17.10;59.01;96339.06;10434560;28;20045;-31
2022/11/14 03:33:29;;;;;;;3.42;1.80;;;;;;;17.11;58.76;96350.00;10441726;28;20123;-30
2022/11/14 03:38:48;;;;;;;2.30;1.98;;;;;;;17.20;57.88;96352.53;10439212;28;20046;-29
2022/11/14 03:44:07;;;;;;;2.95;1.95;;;;;;;17.29;57.54;96339.84;10435924;28;20099;-30
2022/11/14 03:49:26;;;;;;;6.13;2.17;;;;;;;17.26;57.29;96334.81;10432525;28;20072;-29
2022/11/14 03:54:45;;;;;;;2.92;2.00;;;;;;;17.25;58.05;96336.50;10433160;28;20523;-30
2022/11/14 04:00:04;;;;;;;3.05;1.73;;;;;;;17.23;58.30;96344.94;10438118;28;20629;-32
2022/11/14 04:05:23;;;;;;;2.38;1.40;;;;;;;17.20;58.64;96347.47;10434990;28;20033;-32
2022/11/14 04:10:46;;;;;;;2.85;1.60;;;;;;;17.17;58.60;96338.19;10433291;28;20044;-30
2022/11/14 04:16:07;;;;;;;2.38;1.63;;;;;;;17.07;58.57;96321.34;10430264;28;20037;-29
2022/11/14 04:21:26;;;;;;;2.25;1.65;;;;;;;17.12;58.93;96339.03;10434758;28;20037;-29
2022/11/14 04:26:45;;;;;;;2.28;1.58;;;;;;;17.15;58.74;96328.94;10435356;28;20037;-31
2022/11/14 04:32:04;;;;;;;1.27;1.08;;;;;;;17.10;59.04;96340.72;10423037;28;20029;-30
2022/11/14 04:37:22;;;;;;;2.92;1.80;;;;;;;17.15;58.32;96337.34;10426868;28;20439;-31
2022/11/14 04:42:41;;;;;;;2.13;1.70;;;;;;;17.23;58.18;96328.06;10441751;28;20464;-29
2022/11/14 04:48:00;;;;;;;2.92;1.63;;;;;;;17.26;57.76;96312.88;10451265;28;20132;-31
2022/11/14 04:53:19;;;;;;;2.78;1.27;;;;;;;17.25;58.03;96308.66;10450528;28;20044;-31
2022/11/14 04:58:38;;;;;;;3.83;1.73;;;;;;;17.29;57.99;96301.91;10445605;28;20041;-31
2022/11/14 05:03:57;;;;;;;4.90;1.83;;;;;;;17.38;58.19;96302.78;10446018;28;20036;-30
2022/11/14 05:09:16;;;;;;;5.22;1.50;;;;;;;17.34;57.95;96282.50;10443983;28;20045;-30
2022/11/14 05:14:35;;;;;;;3.80;1.60;;;;;;;17.32;58.37;96277.44;10446319;28;20040;-30
2022/11/14 05:19:54;;;;;;;5.30;2.53;;;;;;;17.27;59.12;96288.44;10432035;28;20036;-29
2022/11/14 05:25:13;;;;;;;6.47;1.95;;;;;;;17.33;58.86;96279.13;10431544;28;20044;-29
2022/11/14 05:30:32;;;;;;;2.47;1.67;;;;;;;17.35;58.83;96281.66;10430942;28;20041;-30
2022/11/14 05:35:51;;;;;;;3.10;2.05;;;;;;;17.35;58.91;96269.00;10429851;28;20500;-30
2022/11/14 05:41:15;;;;;;;3.70;1.70;;;;;;;17.42;58.56;96283.38;10434232;28;20124;-30
2022/11/14 05:46:33;;;;;;;4.30;1.73;;;;;;;17.43;59.18;96282.53;10429015;28;20412;-30
2022/11/14 05:51:52;;;;;;;5.18;1.48;;;;;;;17.32;58.78;96291.81;10429956;28;20586;-29
2022/11/14 05:57:11;;;;;;;9.18;1.80;;;;;;;17.02;57.51;96294.38;10429884;28;20446;-29
2022/11/14 06:02:30;;;;;;;6.47;1.80;;;;;;;17.26;57.46;96290.09;10430890;28;20041;-30
2022/11/14 06:07:57;;;;;;;3.47;1.73;;;;;;;17.34;57.46;96285.03;10431131;28;20033;-29
2022/11/14 06:13:16;;;;;;;5.03;2.47;;;;;;;17.35;57.38;96289.25;10443462;28;20052;-30
2022/11/14 06:18:36;;;;;;;4.22;2.30;;;;;;;17.39;57.87;96291.81;10441067;28;20049;-30
2022/11/14 06:23:54;;;;;;;2.92;1.77;;;;;;;17.33;58.18;96303.59;10437713;28;20447;-31
2022/11/14 06:29:13;;;;;;;3.85;2.05;;;;;;;17.26;57.71;96281.69;10438897;28;20396;-30
2022/11/14 06:34:32;;;;;;;6.07;2.88;;;;;;;17.31;57.80;96300.25;10436853;28;20041;-28
2022/11/14 06:39:51;;;;;;;5.43;2.60;;;;;;;17.30;58.15;96312.03;10438207;28;20049;-30
2022/11/14 06:45:10;;;;;;;5.35;2.50;;;;;;;17.25;58.38;96310.38;10439373;28;20028;-30
2022/11/14 06:50:30;;;;;;;5.80;2.47;;;;;;;17.27;58.67;96314.59;10439141;28;20143;-30
2022/11/14 06:55:56;;;;;;;6.68;2.60;;;;;;;17.26;58.75;96324.69;10435173;28;20045;-30
2022/11/14 07:01:16;;;;;;;4.35;2.22;;;;;;;17.26;58.62;96327.22;10435462;28;20049;-30
2022/11/14 07:06:35;;;;;;;8.13;2.45;;;;;;;17.22;58.94;96333.13;10435029;28;20492;-30
2022/11/14 07:11:54;;;;;;;6.88;2.42;;;;;;;17.23;59.00;96347.47;10444282;28;20040;-30
2022/11/14 07:17:13;;;;;;;6.22;2.50;;;;;;;17.24;59.22;96354.22;10437609;28;20037;-30
2022/11/14 07:22:32;;;;;;;4.32;2.08;;;;;;;17.24;58.73;96349.97;10434737;28;20499;-28
2022/11/14 07:27:51;;;;;;;8.32;2.63;;;;;;;17.34;58.60;96360.94;10438797;28;20049;-30
2022/11/14 07:33:10;;;;;;;3.70;2.05;;;;;;;17.34;58.96;96371.06;10435758;28;20036;-29
2022/11/14 07:38:33;;;;;;;4.00;2.13;;;;;;;17.26;59.06;96368.53;10439268;28;20040;-30
2022/11/14 07:43:52;;;;;;;3.30;1.90;;;;;;;17.17;59.14;96363.47;10435796;28;20468;-30
2022/11/14 07:49:11;;;;;;;2.58;1.98;;;;;;;17.22;59.26;96366.00;10435645;28;20491;-30
2022/11/14 07:54:30;;;;;;;5.15;2.20;;;;;;;17.21;59.16;96369.38;10432171;28;20487;-30
2022/11/14 07:59:49;;;;;;;5.93;2.20;;;;;;;17.21;59.35;96376.97;10443258;28;20037;-30
2022/11/14 08:05:08;;;;;;;2.78;1.83;;;;;;;17.21;59.18;96369.38;10436231;28;20453;-30
2022/11/14 08:10:27;;;;;;;2.20;1.60;;;;;;;17.18;59.34;96367.72;10429751;28;20037;-31
2022/11/14 08:15:46;;;;;;;2.63;1.90;;;;;;;17.19;59.63;96381.19;10436683;28;20041;-30
2022/11/14 08:21:05;;;;;;;3.17;1.80;;;;;;;17.19;59.36;96379.53;10433111;28;20503;-29
2022/11/14 08:26:24;;;;;;;2.88;1.95;;;;;;;17.16;59.72;96376.97;10438143;28;20041;-31
2022/11/14 08:31:45;;;;;;;3.78;1.92;;;;;;;17.16;59.71;96382.03;10438082;28;20040;-30
2022/11/14 08:37:04;;;;;;;3.85;1.98;;;;;;;17.27;59.01;96379.50;10433715;28;20040;-30
2022/11/14 08:42:23;;;;;;;2.42;1.40;;;;;;;17.31;59.25;96376.13;10436065;28;20044;-30
2022/11/14 08:47:42;;;;;;;2.35;1.77;;;;;;;17.29;59.19;96388.78;10428888;28;20033;-30
2022/11/14 08:53:00;;;;;;;2.70;1.70;;;;;;;17.23;59.09;96387.94;10433875;28;20045;-29
2022/11/14 08:58:19;;;;;;;3.42;2.08;;;;;;;17.21;59.40;96380.34;10433114;28;20384;-30
2022/11/14 09:03:38;;;;;;;2.85;1.60;;;;;;;17.20;59.51;96387.94;10438989;28;20411;-29
2022/11/14 09:08:57;;;;;;;2.80;1.50;;;;;;;17.17;60.10;96380.34;10429410;28;20463;-30
2022/11/14 09:14:16;;;;;;;3.35;1.92;;;;;;;17.12;59.78;96389.63;10434707;28;20042;-31
2022/11/14 09:19:35;;;;;;;2.60;1.65;;;;;;;17.13;59.75;96394.69;10432659;28;20419;-30
2022/11/14 09:24:54;;;;;;;2.90;1.60;;;;;;;17.13;59.47;96401.41;10439014;28;20045;-30
2022/11/14 09:30:14;;;;;;;2.65;1.50;;;;;;;17.17;59.57;96408.19;10428731;28;20041;-30
2022/11/14 09:35:32;;;;;;;2.72;1.67;;;;;;;17.14;59.68;96403.97;10430552;28;20519;-30
2022/11/14 09:41:15;;;;;;;2.83;2.08;;;;;;;17.17;59.89;96408.19;10436097;28;20041;-29
2022/11/14 09:46:44;;;;;;;2.35;1.50;;;;;;;17.25;59.53;96401.44;10440539;28;20124;-30
2022/11/14 09:52:27;;;;;;;2.15;1.33;;;;;;;17.30;59.34;96414.91;10433545;28;20044;-30
2022/11/14 09:57:46;;;;;;;1.73;1.42;;;;;;;17.39;59.39;96427.59;10437762;28;20041;-30
2022/11/14 10:03:42;;;;;;;3.05;1.90;;;;;;;17.40;59.09;96422.53;10445156;28;20086;-30
2022/11/14 10:09:10;;;;;;;2.63;1.38;;;;;;;17.34;59.37;96422.50;10432809;28;20072;-30
2022/11/14 10:15:07;;;;;;;2.38;1.52;;;;;;;17.31;59.40;96414.09;10442266;28;20535;-30
2022/11/14 10:20:33;;;;;;;3.42;1.90;;;;;;;17.31;59.41;96425.03;10437756;28;20041;-30
2022/11/14 10:26:28;;;;;;;2.73;1.60;;;;;;;17.28;59.76;96429.25;10435091;28;20049;-30
2022/11/14 10:32:17;;;;;;;3.13;1.70;;;;;;;17.27;59.72;96430.09;10436947;28;20327;-30
2022/11/14 10:37:43;;;;;;;3.78;2.00;;;;;;;17.26;59.60;96429.25;10441407;28;20045;-30
2022/11/14 10:43:22;;;;;;;1.98;1.52;;;;;;;17.26;59.87;96438.53;10437005;28;20041;-30
2022/11/14 10:48:45;;;;;;;3.85;2.20;;;;;;;17.27;59.48;96445.28;10440922;28;20033;-30
2022/11/14 10:54:09;;;;;;;5.25;2.60;;;;;;;17.26;59.85;96429.25;10429841;28;20041;-30
2022/11/14 10:59:28;;;;;;;2.65;2.25;;;;;;;17.18;59.74;96419.97;10442270;28;20037;-30
2022/11/14 11:04:47;;;;;;;2.15;1.60;;;;;;;17.22;59.66;96429.25;10432053;28;20045;-30
2022/11/14 11:15:58;;;;;;;2.50;1.73;;;;;;;17.37;59.36;96414.09;10431383;28;20069;-30
2022/11/14 11:21:20;;;;;;;1.92;1.55;;;;;;;17.34;59.36;96409.84;10439940;28;20523;-30
2022/11/14 11:26:39;;;;;;;2.47;1.80;;;;;;;17.29;59.39;96409.03;10443536;28;20037;-29
2022/11/14 11:31:58;;;;;;;4.30;1.52;;;;;;;17.26;59.74;96403.13;10438689;28;20048;-30
2022/11/14 11:37:22;;;;;;;4.93;1.67;;;;;;;17.39;59.74;96407.34;10437885;28;20045;-31
2022/11/14 11:42:44;;;;;;;4.32;1.73;;;;;;;17.38;60.03;96410.72;10445168;28;20037;-32
2022/11/14 11:48:14;;;;;;;2.53;1.45;;;;;;;17.36;59.62;96404.81;10444294;28;20033;-29
2022/11/14 11:53:38;;;;;;;4.20;1.85;;;;;;;17.40;59.89;96407.34;10434412;28;20041;-30
2022/11/14 11:59:25;;;;;;;3.10;1.55;;;;;;;17.42;59.79;96408.19;10451362;28;20049;-29
2022/11/14 12:04:44;;;;;;;2.83;1.30;;;;;;;17.44;59.91;96404.00;10451052;28;20112;-32
2022/11/14 12:10:15;;;;;;;2.30;1.33;;;;;;;17.43;59.77;96412.44;10440441;28;20036;-30
2022/11/14 12:15:43;;;;;;;3.13;1.35;;;;;;;17.44;59.90;96398.94;10439407;28;20041;-30
2022/11/14 12:21:08;;;;;;;2.33;1.48;;;;;;;17.43;60.19;96407.38;10434913;28;20053;-30
2022/11/14 12:27:13;;;;;;;4.70;2.08;;;;;;;17.50;59.97;96408.19;10433635;28;20037;-30
2022/11/14 12:32:57;;;;;;;3.65;2.35;;;;;;;17.49;60.16;96407.34;10426559;28;20033;-30
2022/11/14 12:38:19;;;;;;;2.35;1.50;;;;;;;17.46;60.04;96401.44;10436999;28;20029;-30
2022/11/14 12:43:41;;;;;;;3.92;1.80;;;;;;;17.36;60.28;96404.81;10441446;28;20048;-30
2022/11/14 12:49:00;;;;;;;8.48;2.20;;;;;;;17.34;60.74;96414.09;10424586;28;20037;-30
2022/11/14 12:54:48;;;;;;;6.15;2.90;;;;;;;17.39;60.63;96415.78;10424936;28;20115;-30
2022/11/14 13:00:08;;;;;;;8.82;3.58;;;;;;;17.38;60.17;96414.09;10423836;28;20067;-30
2022/11/14 13:05:52;;;;;;;12.80;2.22;;;;;;;17.39;60.43;96427.59;10433464;28;20033;-30
2022/11/14 13:21:44;;;;;;;6.45;2.92;;;;;;;17.38;60.46;96418.31;10436196;28;20037;-29
2022/11/14 13:22:50;;;;;;;5.18;2.90;;;;;;;17.37;60.62;96417.50;10439633;28;20037;-30
2022/11/14 13:28:37;;;;;;;4.47;1.75;;;;;;;17.35;60.96;96415.75;10444853;28;20036;-30
2022/11/14 13:34:00;;;;;;;5.13;1.70;;;;;;;17.33;60.80;96417.47;10438019;28;20041;-30
2022/11/14 13:39:51;;;;;;;9.00;2.53;;;;;;;17.40;60.81;96416.66;10445722;28;20800;-31
2022/11/14 13:45:19;;;;;;;5.80;2.22;;;;;;;17.40;60.72;96427.59;10435813;28;20034;-31
2022/11/14 13:50:39;;;;;;;5.72;1.88;;;;;;;17.41;60.74;96433.50;10443180;28;20037;-30
2022/11/14 13:55:58;;;;;;;4.47;1.90;;;;;;;17.37;60.77;96431.81;10440785;28;20367;-31
2022/11/14 14:01:38;;;;;;;4.78;2.20;;;;;;;17.34;60.79;96441.91;10432559;28;20048;-30
2022/11/14 14:07:19;;;;;;;3.33;1.77;;;;;;;17.30;61.32;96435.16;10435557;28;20441;-30
2022/11/14 14:12:59;;;;;;;2.78;1.80;;;;;;;17.28;61.40;96441.91;10447052;28;20041;-30
2022/11/14 14:18:28;;;;;;;2.42;1.70;;;;;;;17.24;61.27;96428.41;10435503;28;20037;-29
2022/11/14 14:24:02;;;;;;;2.95;1.80;;;;;;;17.28;61.12;96436.84;10445358;28;20037;-30
2022/11/14 14:29:36;;;;;;;2.85;1.58;;;;;;;17.27;61.34;96440.22;10442578;28;20036;-30
2022/11/14 14:34:57;;;;;;;3.88;1.75;;;;;;;17.22;61.19;96427.56;10436589;28;20044;-30
2022/11/14 14:40:32;;;;;;;3.75;1.63;;;;;;;17.26;61.58;96428.41;10444218;28;20037;-31
2022/11/14 14:45:53;;;;;;;1.75;1.30;;;;;;;17.20;61.19;96411.56;10439041;28;20500;-30
2022/11/14 14:51:13;;;;;;;2.75;2.30;;;;;;;17.26;61.13;96434.31;10441917;28;20566;-30
2022/11/14 14:56:32;;;;;;;3.47;1.65;;;;;;;17.33;61.25;96430.94;10440816;28;20045;-30
2022/11/14 15:01:52;;;;;;;3.05;1.88;;;;;;;17.35;61.05;96430.94;10431438;28;20033;-30
2022/11/14 15:07:24;;;;;;;2.85;1.58;;;;;;;17.34;61.10;96435.16;10438303;28;20045;-30
2022/11/14 15:12:44;;;;;;;3.50;1.50;;;;;;;17.31;61.44;96446.97;10435756;28;20038;-30
2022/11/14 15:18:06;;;;;;;2.80;1.70;;;;;;;17.27;61.42;96440.22;10432469;28;20112;-30
2022/11/14 15:23:25;;;;;;;1.75;1.38;;;;;;;17.23;61.90;96441.06;10434628;28;20041;-30
2022/11/14 15:28:44;;;;;;;1.98;1.52;;;;;;;17.21;61.67;96425.88;10439189;28;20660;-31
2022/11/14 15:34:31;;;;;;;3.38;1.58;;;;;;;17.15;61.59;96420.81;10436018;28;20064;-31
2022/11/14 15:39:50;;;;;;;2.40;1.13;;;;;;;17.20;61.74;96438.53;10439157;28;20045;-30
2022/11/14 15:45:24;;;;;;;3.70;2.00;;;;;;;17.19;61.64;96437.69;10433176;28;20493;-30
2022/11/14 15:50:42;;;;;;;3.28;1.45;;;;;;;17.19;61.61;96435.16;10438410;28;20045;-29
2022/11/14 15:56:01;;;;;;;1.65;1.10;;;;;;;17.18;61.80;96437.69;10438619;28;20496;-31
2022/11/14 16:01:24;;;;;;;1.83;1.38;;;;;;;17.15;61.87;96446.13;10427882;28;20443;-31
2022/11/14 16:06:43;;;;;;;3.35;1.60;;;;;;;17.15;62.00;96445.28;10436306;28;20112;-29
2022/11/14 16:12:02;;;;;;;1.60;1.20;;;;;;;17.25;61.53;96436.84;10442932;28;20033;-28
2022/11/14 16:17:22;;;;;;;1.67;1.20;;;;;;;17.31;61.17;96452.03;10435831;28;20044;-30
2022/11/14 16:22:45;;;;;;;4.50;2.00;;;;;;;17.28;61.70;96452.88;10433262;28;20052;-30
2022/11/14 16:28:04;;;;;;;1.40;1.20;;;;;;;17.21;61.55;96450.31;10433447;28;20025;-30
2022/11/14 16:33:23;;;;;;;2.03;1.20;;;;;;;17.19;61.86;96447.81;10430204;28;20041;-30
2022/11/14 16:38:41;;;;;;;2.30;1.45;;;;;;;17.17;61.84;96456.25;10436857;28;20033;-30
2022/11/14 16:44:00;;;;;;;1.67;1.30;;;;;;;17.15;61.62;96456.22;10434004;28;20076;-30
2022/11/14 16:49:19;;;;;;;1.20;1.00;;;;;;;17.09;61.90;96455.38;10430616;28;20033;-29
2022/11/14 16:54:38;;;;;;;1.30;1.17;;;;;;;17.13;62.03;96462.97;10430933;28;20502;-30
2022/11/14 16:59:57;;;;;;;2.85;1.50;;;;;;;17.12;62.17;96456.25;10435378;28;20129;-30
2022/11/14 17:05:16;;;;;;;1.70;1.20;;;;;;;17.11;62.10;96469.72;10435516;28;20079;-26
2022/11/14 17:10:43;;;;;;;1.92;1.48;;;;;;;17.10;62.14;96464.66;10430313;28;20045;-30
2022/11/14 17:16:03;;;;;;;1.20;1.10;;;;;;;17.11;61.95;96466.34;10429458;28;20041;-30
2022/11/14 17:21:23;;;;;;;1.80;1.40;;;;;;;17.10;62.28;96467.19;10433291;28;20040;-30
2022/11/14 17:26:42;;;;;;;2.03;1.30;;;;;;;17.20;61.88;96472.28;10433401;28;20033;-30
2022/11/14 17:32:02;;;;;;;2.00;1.40;;;;;;;17.24;61.71;96460.47;10432209;28;20053;-30
2022/11/14 17:37:22;;;;;;;8.98;1.60;;;;;;;17.17;61.91;96466.34;10429136;28;20044;-29
2022/11/14 17:42:41;;;;;;;4.32;1.50;;;;;;;17.21;62.30;96475.63;10413283;28;20041;-33
2022/11/14 17:48:00;;;;;;;2.10;1.42;;;;;;;17.16;62.55;96474.78;10426224;28;20162;-30
2022/11/14 17:53:19;;;;;;;2.20;1.45;;;;;;;17.12;62.60;96473.09;10420494;28;20172;-30
2022/11/14 17:58:38;;;;;;;1.45;1.00;;;;;;;17.11;62.90;96476.47;10421403;28;20049;-30
2022/11/14 18:03:57;;;;;;;1.70;1.40;;;;;;;17.12;62.73;96466.34;10438752;28;20617;-29
2022/11/14 18:09:16;;;;;;;2.80;1.20;;;;;;;17.11;62.76;96468.88;10437689;28;20037;-30
2022/11/14 18:14:34;;;;;;;3.20;1.38;;;;;;;17.14;62.84;96473.97;10442344;28;20273;-30
2022/11/14 18:19:55;;;;;;;4.35;1.50;;;;;;;17.13;62.80;96464.66;10432181;28;20116;-30
2022/11/14 18:25:14;;;;;;;3.83;1.48;;;;;;;17.11;62.75;96474.78;10439356;28;20415;-30
2022/11/14 18:30:34;;;;;;;3.67;1.70;;;;;;;17.09;62.87;96468.03;10437279;28;20472;-29
2022/11/14 18:35:57;;;;;;;2.67;1.75;;;;;;;17.02;63.00;96458.75;10441593;28;20033;-30
2022/11/14 18:41:19;;;;;;;4.22;1.75;;;;;;;17.04;62.57;96462.13;10438829;28;20037;-30
2022/11/14 18:46:38;;;;;;;1.95;1.50;;;;;;;17.13;62.89;96464.66;10443104;28;20033;-30
2022/11/14 18:51:57;;;;;;;2.42;2.13;;;;;;;17.22;62.56;96452.00;10432247;28;20479;-30
2022/11/14 18:57:16;;;;;;;5.15;2.13;;;;;;;17.18;62.63;96447.81;10432126;28;20414;-29
2022/11/14 19:02:35;;;;;;;5.72;2.65;;;;;;;17.12;62.83;96447.78;10438385;28;20041;-31
2022/11/14 19:07:54;;;;;;;2.90;2.40;;;;;;;17.08;63.10;96451.19;10434791;28;20494;-30
2022/11/14 19:13:13;;;;;;;4.55;2.78;;;;;;;17.07;62.96;96457.09;10429849;28;20434;-31
2022/11/14 19:18:32;;;;;;;3.67;3.00;;;;;;;17.08;63.04;96453.72;10433701;28;20037;-29
2022/11/14 19:23:53;;;;;;;4.93;3.08;;;;;;;17.02;62.92;96449.50;10441580;28;20029;-30
2022/11/14 19:29:12;;;;;;;5.65;2.75;;;;;;;17.01;61.20;96450.34;10434675;28;20045;-29
2022/11/14 19:34:31;;;;;;;3.67;2.88;;;;;;;17.01;61.25;96454.53;10432625;28;20088;-29
2022/11/14 19:39:54;;;;;;;4.13;2.70;;;;;;;16.98;61.68;96457.06;10430084;28;20072;-30
2022/11/14 19:45:13;;;;;;;6.43;3.03;;;;;;;17.09;61.98;96450.34;10429401;28;20108;-30
2022/11/14 19:50:32;;;;;;;4.43;3.00;;;;;;;17.16;61.92;96442.75;10434063;28;20491;-30
2022/11/14 19:55:58;;;;;;;7.82;2.90;;;;;;;17.18;62.06;96450.34;10434044;28;20045;-30
2022/11/14 20:01:20;;;;;;;4.32;3.13;;;;;;;17.25;61.53;96439.38;10435471;28;20044;-31
2022/11/14 20:06:40;;;;;;;4.03;3.63;;;;;;;17.35;61.53;96453.72;10433942;28;20033;-29
2022/11/14 20:12:00;;;;;;;7.43;3.40;;;;;;;17.30;61.65;96451.19;10440738;28;20060;-30
2022/11/14 20:17:19;;;;;;;5.93;3.22;;;;;;;17.27;61.82;96455.41;10418365;28;20041;-30
2022/11/14 20:22:38;;;;;;;7.50;3.38;;;;;;;17.31;61.75;96457.09;10419130;28;20036;-30
2022/11/14 20:27:57;;;;;;;7.45;3.78;;;;;;;17.33;61.79;96455.41;10427892;28;20033;-30
2022/11/14 20:33:16;;;;;;;6.13;3.88;;;;;;;17.36;61.65;96455.44;10426135;28;20048;-30
2022/11/14 20:38:36;;;;;;;4.30;3.38;;;;;;;17.31;61.91;96460.47;10430797;28;20025;-30
2022/11/14 20:43:55;;;;;;;6.32;3.88;;;;;;;17.35;61.88;96456.25;10426894;28;20239;-30
2022/11/14 20:49:13;;;;;;;6.03;4.75;;;;;;;17.36;61.80;96470.63;10433009;28;20758;-32
2022/11/14 20:54:32;;;;;;;7.82;4.35;;;;;;;17.39;61.78;96470.59;10438804;28;20037;-30
2022/11/14 20:59:51;;;;;;;8.18;4.40;;;;;;;17.36;61.92;96463.03;10439243;28;20044;-30
2022/11/14 21:05:10;;;;;;;7.55;3.90;;;;;;;17.36;61.98;96463.03;10438995;28;20036;-30
2022/11/14 21:10:44;;;;;;;5.95;4.13;;;;;;;17.38;61.95;96466.38;10443699;28;21683;-30
2022/11/14 21:16:06;;;;;;;7.25;5.15;;;;;;;17.39;62.25;96465.53;10443279;28;20033;-32
2022/11/14 21:21:27;;;;;;;6.10;5.03;;;;;;;17.43;61.99;96452.06;10432291;28;20037;-30
2022/11/14 21:26:46;;;;;;;5.72;4.90;;;;;;;17.39;62.16;96455.41;10435824;28;20036;-33
2022/11/14 21:32:05;;;;;;;6.07;4.82;;;;;;;17.37;62.17;96452.91;10428990;28;20036;-31
2022/11/14 21:37:24;;;;;;;6.00;5.10;;;;;;;17.33;62.26;96450.34;10439150;28;20124;-30
2022/11/14 21:42:43;;;;;;;6.82;4.97;;;;;;;17.27;62.61;96446.13;10439173;28;20570;-30
2022/11/14 21:48:02;;;;;;;6.63;4.47;;;;;;;17.25;62.76;96441.91;10440803;28;20045;-30
2022/11/14 21:53:20;;;;;;;8.80;5.00;;;;;;;17.25;62.19;96440.22;10443216;28;20060;-31
2022/11/14 21:58:40;;;;;;;5.97;5.40;;;;;;;17.24;62.78;96437.69;10441762;28;20038;-30
2022/11/14 22:04:11;;;;;;;5.53;4.72;;;;;;;17.24;62.78;96436.00;10443496;28;20487;-31
2022/11/14 22:09:31;;;;;;;10.40;4.85;;;;;;;17.25;62.21;96444.44;10436940;28;20041;-31
2022/11/14 22:14:50;;;;;;;5.28;4.35;;;;;;;17.24;62.74;96435.16;10443381;28;20045;-30
2022/11/14 22:20:09;;;;;;;6.85;4.65;;;;;;;17.20;62.62;96433.47;10439192;28;20045;-30
2022/11/14 22:25:28;;;;;;;7.70;4.18;;;;;;;17.21;62.91;96445.28;10444684;28;20076;-31
2022/11/14 22:30:58;;;;;;;8.23;4.85;;;;;;;17.27;62.35;96441.06;10442871;28;20041;-32
2022/11/14 22:36:22;;;;;;;6.80;4.90;;;;;;;17.35;62.42;96438.53;10442740;28;20368;-30
2022/11/14 22:41:41;;;;;;;7.57;4.22;;;;;;;17.34;62.44;96439.38;10438316;28;20430;-31
2022/11/14 22:47:01;;;;;;;6.63;4.55;;;;;;;17.20;62.69;96438.53;10443460;28;20443;-31
2022/11/14 22:52:20;;;;;;;5.68;4.53;;;;;;;17.13;63.04;96424.19;10437560;28;20119;-31
2022/11/14 22:57:39;;;;;;;7.72;4.10;;;;;;;17.17;63.05;96430.94;10437219;28;20453;-30
2022/11/14 23:02:58;;;;;;;7.82;3.90;;;;;;;17.23;62.57;96428.44;10440638;28;20049;-30
2022/11/14 23:08:18;;;;;;;6.72;3.90;;;;;;;17.22;63.10;96436.84;10436100;28;20511;-31
2022/11/14 23:13:40;;;;;;;8.32;4.47;;;;;;;17.22;62.58;96434.31;10442444;28;20042;-29
2022/11/14 23:19:02;;;;;;;9.07;4.90;;;;;;;17.23;62.77;96436.84;10438029;28;20438;-29
2022/11/14 23:24:21;;;;;;;5.40;3.88;;;;;;;17.15;62.71;96422.53;10440126;28;20119;-30
2022/11/14 23:29:39;;;;;;;6.70;3.83;;;;;;;17.22;62.98;96434.31;10439052;28;20040;-30
2022/11/14 23:34:58;;;;;;;6.70;5.22;;;;;;;17.21;62.72;96425.03;10433932;28;20410;-30
2022/11/14 23:40:17;;;;;;;7.13;3.63;;;;;;;17.22;62.80;96411.53;10440417;28;20037;-30
2022/11/14 23:45:36;;;;;;;6.97;3.95;;;;;;;17.21;62.97;96403.13;10434152;28;20120;-31
2022/11/14 23:50:56;;;;;;;5.22;4.18;;;;;;;17.34;62.49;96398.91;10439965;28;20044;-30
2022/11/14 23:56:15;;;;;;;3.97;3.65;;;;;;;17.35;62.55;96393.00;10434805;28;20570;-31
